sensor_id;sensor_type;location;lat;lon;timestamp;P1;durP1;ratioP1;P2;durP2;ratioP2
15340;SDS011;7770;52.158;5.372;2023-09-07T00:02:32;16.27;;;14.77;;
15340;SDS011;7770;52.158;5.372;2023-09-07T00:05:18;15.07;;;13.67;;
15340;SDS011;7770;52.158;5.372;2023-09-07T00:08:04;14.43;;;13.27;;
15340;SDS011;7770;52.158;5.372;2023-09-07T00:10:51;15.03;;;13.53;;
15340;SDS011;7770;52.158;5.372;2023-09-07T00:13:37;15.37;;;13.87;;
15340;SDS011;7770;52.158;5.372;2023-09-07T00:16:23;15.00;;;13.80;;
15340;SDS011;7770;52.158;5.372;2023-09-07T00:19:09;15.17;;;13.87;;
15340;SDS011;7770;52.158;5.372;2023-09-07T00:21:55;14.50;;;13.30;;
15340;SDS011;7770;52.158;5.372;2023-09-07T00:24:41;14.63;;;13.43;;
15340;SDS011;7770;52.158;5.372;2023-09-07T00:27:27;15.00;;;13.70;;
15340;SDS011;7770;52.158;5.372;2023-09-07T00:30:13;15.60;;;14.07;;
15340;SDS011;7770;52.158;5.372;2023-09-07T00:32:59;14.27;;;13.03;;
15340;SDS011;7770;52.158;5.372;2023-09-07T00:35:45;15.00;;;13.60;;
15340;SDS011;7770;52.158;5.372;2023-09-07T00:38:31;15.33;;;13.80;;
15340;SDS011;7770;52.158;5.372;2023-09-07T00:41:17;14.73;;;13.43;;
15340;SDS011;7770;52.158;5.372;2023-09-07T00:44:04;14.70;;;13.50;;
15340;SDS011;7770;52.158;5.372;2023-09-07T00:46:50;14.43;;;13.33;;
15340;SDS011;7770;52.158;5.372;2023-09-07T00:49:36;14.93;;;13.47;;
15340;SDS011;7770;52.158;5.372;2023-09-07T00:52:23;14.53;;;13.10;;
15340;SDS011;7770;52.158;5.372;2023-09-07T00:55:09;15.57;;;13.93;;
15340;SDS011;7770;52.158;5.372;2023-09-07T00:57:55;15.23;;;13.93;;
15340;SDS011;7770;52.158;5.372;2023-09-07T01:00:41;14.93;;;13.63;;
15340;SDS011;7770;52.158;5.372;2023-09-07T01:03:28;14.93;;;13.63;;
15340;SDS011;7770;52.158;5.372;2023-09-07T01:06:22;15.87;;;14.43;;
15340;SDS011;7770;52.158;5.372;2023-09-07T01:09:17;14.57;;;13.33;;
15340;SDS011;7770;52.158;5.372;2023-09-07T01:12:07;14.67;;;13.47;;
15340;SDS011;7770;52.158;5.372;2023-09-07T01:14:56;15.47;;;14.17;;
15340;SDS011;7770;52.158;5.372;2023-09-07T01:17:43;15.57;;;14.10;;
15340;SDS011;7770;52.158;5.372;2023-09-07T01:20:30;15.53;;;14.27;;
15340;SDS011;7770;52.158;5.372;2023-09-07T01:23:18;15.63;;;14.33;;
15340;SDS011;7770;52.158;5.372;2023-09-07T01:26:05;15.90;;;14.53;;
15340;SDS011;7770;52.158;5.372;2023-09-07T01:28:53;15.57;;;14.17;;
15340;SDS011;7770;52.158;5.372;2023-09-07T01:31:40;15.57;;;14.37;;
15340;SDS011;7770;52.158;5.372;2023-09-07T01:34:25;15.67;;;14.07;;
15340;SDS011;7770;52.158;5.372;2023-09-07T01:37:11;16.57;;;15.17;;
15340;SDS011;7770;52.158;5.372;2023-09-07T01:39:57;16.00;;;14.70;;
15340;SDS011;7770;52.158;5.372;2023-09-07T01:42:44;16.20;;;14.60;;
15340;SDS011;7770;52.158;5.372;2023-09-07T01:45:30;16.90;;;15.40;;
15340;SDS011;7770;52.158;5.372;2023-09-07T01:48:16;16.00;;;14.60;;
15340;SDS011;7770;52.158;5.372;2023-09-07T01:51:02;16.50;;;15.17;;
15340;SDS011;7770;52.158;5.372;2023-09-07T01:53:48;16.47;;;14.97;;
15340;SDS011;7770;52.158;5.372;2023-09-07T01:56:34;17.50;;;15.90;;
15340;SDS011;7770;52.158;5.372;2023-09-07T01:59:20;16.00;;;14.70;;
15340;SDS011;7770;52.158;5.372;2023-09-07T02:02:06;16.70;;;15.23;;
15340;SDS011;7770;52.158;5.372;2023-09-07T02:04:53;16.83;;;15.03;;
15340;SDS011;7770;52.158;5.372;2023-09-07T02:07:39;16.83;;;15.23;;
15340;SDS011;7770;52.158;5.372;2023-09-07T02:10:25;17.37;;;15.70;;
15340;SDS011;7770;52.158;5.372;2023-09-07T02:13:11;17.57;;;16.07;;
15340;SDS011;7770;52.158;5.372;2023-09-07T02:15:57;17.53;;;16.00;;
15340;SDS011;7770;52.158;5.372;2023-09-07T02:18:44;17.33;;;15.80;;
15340;SDS011;7770;52.158;5.372;2023-09-07T02:21:31;17.67;;;16.20;;
15340;SDS011;7770;52.158;5.372;2023-09-07T02:24:17;17.20;;;15.80;;
15340;SDS011;7770;52.158;5.372;2023-09-07T02:27:03;17.43;;;16.03;;
15340;SDS011;7770;52.158;5.372;2023-09-07T02:29:49;18.03;;;16.57;;
15340;SDS011;7770;52.158;5.372;2023-09-07T02:32:35;17.47;;;16.00;;
15340;SDS011;7770;52.158;5.372;2023-09-07T02:35:21;17.33;;;15.73;;
15340;SDS011;7770;52.158;5.372;2023-09-07T02:38:07;18.70;;;16.90;;
15340;SDS011;7770;52.158;5.372;2023-09-07T02:40:54;17.73;;;16.37;;
15340;SDS011;7770;52.158;5.372;2023-09-07T02:43:41;18.17;;;16.57;;
15340;SDS011;7770;52.158;5.372;2023-09-07T02:46:27;19.63;;;17.77;;
15340;SDS011;7770;52.158;5.372;2023-09-07T02:49:13;19.00;;;17.40;;
15340;SDS011;7770;52.158;5.372;2023-09-07T02:51:59;18.90;;;16.97;;
15340;SDS011;7770;52.158;5.372;2023-09-07T02:54:45;19.30;;;17.53;;
15340;SDS011;7770;52.158;5.372;2023-09-07T02:57:31;17.87;;;16.17;;
15340;SDS011;7770;52.158;5.372;2023-09-07T03:00:18;17.50;;;15.83;;
15340;SDS011;7770;52.158;5.372;2023-09-07T03:03:04;18.13;;;16.43;;
15340;SDS011;7770;52.158;5.372;2023-09-07T03:05:50;17.57;;;15.97;;
15340;SDS011;7770;52.158;5.372;2023-09-07T03:08:36;17.83;;;16.33;;
15340;SDS011;7770;52.158;5.372;2023-09-07T03:11:22;17.33;;;16.03;;
15340;SDS011;7770;52.158;5.372;2023-09-07T03:14:08;18.37;;;16.87;;
15340;SDS011;7770;52.158;5.372;2023-09-07T03:16:54;18.07;;;16.47;;
15340;SDS011;7770;52.158;5.372;2023-09-07T03:19:40;18.37;;;16.73;;
15340;SDS011;7770;52.158;5.372;2023-09-07T03:22:26;17.80;;;16.30;;
15340;SDS011;7770;52.158;5.372;2023-09-07T03:25:14;18.37;;;16.77;;
15340;SDS011;7770;52.158;5.372;2023-09-07T03:28:00;18.53;;;16.83;;
15340;SDS011;7770;52.158;5.372;2023-09-07T03:30:46;18.67;;;17.17;;
15340;SDS011;7770;52.158;5.372;2023-09-07T03:33:32;18.83;;;17.10;;
15340;SDS011;7770;52.158;5.372;2023-09-07T03:36:18;18.50;;;16.87;;
15340;SDS011;7770;52.158;5.372;2023-09-07T03:39:07;18.67;;;16.97;;
15340;SDS011;7770;52.158;5.372;2023-09-07T03:41:53;18.27;;;16.83;;
15340;SDS011;7770;52.158;5.372;2023-09-07T03:44:39;18.50;;;16.87;;
15340;SDS011;7770;52.158;5.372;2023-09-07T03:47:25;18.30;;;16.80;;
15340;SDS011;7770;52.158;5.372;2023-09-07T03:50:14;18.40;;;16.80;;
15340;SDS011;7770;52.158;5.372;2023-09-07T03:53:00;19.07;;;17.40;;
15340;SDS011;7770;52.158;5.372;2023-09-07T03:55:46;19.67;;;17.67;;
15340;SDS011;7770;52.158;5.372;2023-09-07T03:58:32;18.30;;;16.70;;
15340;SDS011;7770;52.158;5.372;2023-09-07T04:01:18;18.70;;;17.00;;
15340;SDS011;7770;52.158;5.372;2023-09-07T04:04:04;19.80;;;17.70;;
15340;SDS011;7770;52.158;5.372;2023-09-07T04:06:50;18.90;;;17.40;;
15340;SDS011;7770;52.158;5.372;2023-09-07T04:09:36;20.23;;;18.43;;
15340;SDS011;7770;52.158;5.372;2023-09-07T04:12:22;19.13;;;17.53;;
15340;SDS011;7770;52.158;5.372;2023-09-07T04:15:09;18.77;;;17.27;;
15340;SDS011;7770;52.158;5.372;2023-09-07T04:17:56;19.30;;;17.70;;
15340;SDS011;7770;52.158;5.372;2023-09-07T04:20:42;18.80;;;17.30;;
15340;SDS011;7770;52.158;5.372;2023-09-07T04:23:28;20.43;;;18.00;;
15340;SDS011;7770;52.158;5.372;2023-09-07T04:26:15;18.63;;;17.13;;
15340;SDS011;7770;52.158;5.372;2023-09-07T04:29:01;20.53;;;18.57;;
15340;SDS011;7770;52.158;5.372;2023-09-07T04:31:47;18.73;;;17.10;;
15340;SDS011;7770;52.158;5.372;2023-09-07T04:34:33;19.07;;;17.30;;
15340;SDS011;7770;52.158;5.372;2023-09-07T04:37:19;20.93;;;18.87;;
15340;SDS011;7770;52.158;5.372;2023-09-07T04:40:05;20.07;;;18.20;;
15340;SDS011;7770;52.158;5.372;2023-09-07T04:42:52;19.97;;;17.90;;
15340;SDS011;7770;52.158;5.372;2023-09-07T04:45:45;19.33;;;17.43;;
15340;SDS011;7770;52.158;5.372;2023-09-07T04:48:32;19.53;;;17.87;;
15340;SDS011;7770;52.158;5.372;2023-09-07T04:51:19;20.47;;;18.67;;
15340;SDS011;7770;52.158;5.372;2023-09-07T04:54:07;20.03;;;18.03;;
15340;SDS011;7770;52.158;5.372;2023-09-07T04:56:53;20.00;;;18.40;;
15340;SDS011;7770;52.158;5.372;2023-09-07T04:59:39;20.53;;;18.23;;
15340;SDS011;7770;52.158;5.372;2023-09-07T05:02:25;18.87;;;17.37;;
15340;SDS011;7770;52.158;5.372;2023-09-07T05:05:11;19.57;;;17.97;;
15340;SDS011;7770;52.158;5.372;2023-09-07T05:07:57;19.90;;;18.20;;
15340;SDS011;7770;52.158;5.372;2023-09-07T05:10:43;19.60;;;17.90;;
15340;SDS011;7770;52.158;5.372;2023-09-07T05:13:29;19.37;;;17.47;;
15340;SDS011;7770;52.158;5.372;2023-09-07T05:16:16;20.03;;;18.30;;
15340;SDS011;7770;52.158;5.372;2023-09-07T05:19:02;20.17;;;18.13;;
15340;SDS011;7770;52.158;5.372;2023-09-07T05:21:48;19.43;;;17.63;;
15340;SDS011;7770;52.158;5.372;2023-09-07T05:24:37;19.40;;;17.70;;
15340;SDS011;7770;52.158;5.372;2023-09-07T05:27:24;20.00;;;18.10;;
15340;SDS011;7770;52.158;5.372;2023-09-07T05:30:10;19.13;;;17.33;;
15340;SDS011;7770;52.158;5.372;2023-09-07T05:32:56;19.27;;;17.57;;
15340;SDS011;7770;52.158;5.372;2023-09-07T05:35:42;18.07;;;16.60;;
15340;SDS011;7770;52.158;5.372;2023-09-07T05:38:30;18.90;;;16.97;;
15340;SDS011;7770;52.158;5.372;2023-09-07T05:41:16;18.43;;;16.43;;
15340;SDS011;7770;52.158;5.372;2023-09-07T05:44:02;18.77;;;16.97;;
15340;SDS011;7770;52.158;5.372;2023-09-07T05:46:49;18.33;;;16.83;;
15340;SDS011;7770;52.158;5.372;2023-09-07T05:49:35;18.47;;;16.87;;
15340;SDS011;7770;52.158;5.372;2023-09-07T05:52:21;18.40;;;16.57;;
15340;SDS011;7770;52.158;5.372;2023-09-07T05:55:07;17.97;;;16.33;;
15340;SDS011;7770;52.158;5.372;2023-09-07T05:57:56;17.97;;;16.07;;
15340;SDS011;7770;52.158;5.372;2023-09-07T06:00:43;16.47;;;15.07;;
15340;SDS011;7770;52.158;5.372;2023-09-07T06:03:29;18.67;;;15.57;;
15340;SDS011;7770;52.158;5.372;2023-09-07T06:06:15;15.93;;;14.43;;
15340;SDS011;7770;52.158;5.372;2023-09-07T06:09:01;15.27;;;13.73;;
15340;SDS011;7770;52.158;5.372;2023-09-07T06:11:49;14.80;;;13.07;;
15340;SDS011;7770;52.158;5.372;2023-09-07T06:14:35;15.03;;;13.53;;
15340;SDS011;7770;52.158;5.372;2023-09-07T06:17:21;16.57;;;14.83;;
15340;SDS011;7770;52.158;5.372;2023-09-07T06:20:07;15.80;;;14.20;;
15340;SDS011;7770;52.158;5.372;2023-09-07T06:22:54;16.63;;;14.80;;
15340;SDS011;7770;52.158;5.372;2023-09-07T06:25:40;16.33;;;14.83;;
15340;SDS011;7770;52.158;5.372;2023-09-07T06:28:26;16.70;;;15.03;;
15340;SDS011;7770;52.158;5.372;2023-09-07T06:31:12;17.03;;;15.33;;
15340;SDS011;7770;52.158;5.372;2023-09-07T06:33:58;16.37;;;14.73;;
15340;SDS011;7770;52.158;5.372;2023-09-07T06:36:44;17.67;;;15.80;;
15340;SDS011;7770;52.158;5.372;2023-09-07T06:39:30;18.13;;;15.67;;
15340;SDS011;7770;52.158;5.372;2023-09-07T06:42:16;16.73;;;15.07;;
15340;SDS011;7770;52.158;5.372;2023-09-07T06:45:03;16.90;;;15.50;;
15340;SDS011;7770;52.158;5.372;2023-09-07T06:47:50;16.53;;;14.90;;
15340;SDS011;7770;52.158;5.372;2023-09-07T06:50:36;17.97;;;16.27;;
15340;SDS011;7770;52.158;5.372;2023-09-07T06:53:22;17.20;;;15.30;;
15340;SDS011;7770;52.158;5.372;2023-09-07T06:56:08;17.23;;;15.50;;
15340;SDS011;7770;52.158;5.372;2023-09-07T06:58:55;17.47;;;15.90;;
15340;SDS011;7770;52.158;5.372;2023-09-07T07:01:41;16.90;;;15.40;;
15340;SDS011;7770;52.158;5.372;2023-09-07T07:04:27;16.00;;;14.70;;
15340;SDS011;7770;52.158;5.372;2023-09-07T07:07:13;16.70;;;15.27;;
15340;SDS011;7770;52.158;5.372;2023-09-07T07:09:59;16.27;;;14.83;;
15340;SDS011;7770;52.158;5.372;2023-09-07T07:12:45;17.40;;;15.77;;
15340;SDS011;7770;52.158;5.372;2023-09-07T07:15:31;16.33;;;14.67;;
15340;SDS011;7770;52.158;5.372;2023-09-07T07:18:17;16.50;;;15.00;;
15340;SDS011;7770;52.158;5.372;2023-09-07T07:21:04;16.17;;;14.63;;
15340;SDS011;7770;52.158;5.372;2023-09-07T07:23:50;16.43;;;14.93;;
15340;SDS011;7770;52.158;5.372;2023-09-07T07:26:36;15.73;;;14.40;;
15340;SDS011;7770;52.158;5.372;2023-09-07T07:29:22;16.63;;;14.87;;
15340;SDS011;7770;52.158;5.372;2023-09-07T07:32:08;16.33;;;14.83;;
15340;SDS011;7770;52.158;5.372;2023-09-07T07:34:54;16.80;;;15.17;;
15340;SDS011;7770;52.158;5.372;2023-09-07T07:37:40;15.40;;;13.90;;
15340;SDS011;7770;52.158;5.372;2023-09-07T07:40:26;17.30;;;15.03;;
15340;SDS011;7770;52.158;5.372;2023-09-07T07:43:12;15.23;;;13.87;;
15340;SDS011;7770;52.158;5.372;2023-09-07T07:45:58;16.40;;;14.27;;
15340;SDS011;7770;52.158;5.372;2023-09-07T07:48:44;15.47;;;14.07;;
15340;SDS011;7770;52.158;5.372;2023-09-07T07:51:30;15.77;;;14.17;;
15340;SDS011;7770;52.158;5.372;2023-09-07T07:54:16;15.20;;;13.73;;
15340;SDS011;7770;52.158;5.372;2023-09-07T07:57:03;16.00;;;14.33;;
15340;SDS011;7770;52.158;5.372;2023-09-07T07:59:49;14.47;;;13.17;;
15340;SDS011;7770;52.158;5.372;2023-09-07T08:02:35;15.17;;;13.87;;
15340;SDS011;7770;52.158;5.372;2023-09-07T08:05:21;14.37;;;13.07;;
15340;SDS011;7770;52.158;5.372;2023-09-07T08:08:07;15.10;;;13.77;;
15340;SDS011;7770;52.158;5.372;2023-09-07T08:10:54;14.53;;;13.10;;
15340;SDS011;7770;52.158;5.372;2023-09-07T08:13:42;17.33;;;13.20;;
15340;SDS011;7770;52.158;5.372;2023-09-07T08:16:31;14.50;;;13.07;;
15340;SDS011;7770;52.158;5.372;2023-09-07T08:19:17;13.25;;;12.07;;
15340;SDS011;7770;52.158;5.372;2023-09-07T08:22:04;12.60;;;11.32;;
15340;SDS011;7770;52.158;5.372;2023-09-07T08:24:51;12.55;;;11.35;;
15340;SDS011;7770;52.158;5.372;2023-09-07T08:27:37;12.63;;;11.43;;
15340;SDS011;7770;52.158;5.372;2023-09-07T08:30:23;12.13;;;11.00;;
15340;SDS011;7770;52.158;5.372;2023-09-07T08:33:11;15.35;;;11.07;;
15340;SDS011;7770;52.158;5.372;2023-09-07T08:35:57;11.40;;;10.40;;
15340;SDS011;7770;52.158;5.372;2023-09-07T08:38:45;10.45;;;9.48;;
15340;SDS011;7770;52.158;5.372;2023-09-07T08:41:32;11.30;;;9.95;;
15340;SDS011;7770;52.158;5.372;2023-09-07T08:44:32;11.07;;;9.82;;
15340;SDS011;7770;52.158;5.372;2023-09-07T08:47:20;10.23;;;9.32;;
15340;SDS011;7770;52.158;5.372;2023-09-07T08:50:07;10.45;;;9.52;;
15340;SDS011;7770;52.158;5.372;2023-09-07T08:52:54;15.35;;;8.75;;
15340;SDS011;7770;52.158;5.372;2023-09-07T08:55:40;10.82;;;8.35;;
15340;SDS011;7770;52.158;5.372;2023-09-07T08:58:26;8.55;;;7.75;;
15340;SDS011;7770;52.158;5.372;2023-09-07T09:01:12;11.02;;;7.70;;
15340;SDS011;7770;52.158;5.372;2023-09-07T09:03:58;8.23;;;7.45;;
15340;SDS011;7770;52.158;5.372;2023-09-07T09:06:44;9.45;;;7.43;;
15340;SDS011;7770;52.158;5.372;2023-09-07T09:09:30;8.80;;;7.20;;
15340;SDS011;7770;52.158;5.372;2023-09-07T09:12:17;9.13;;;7.20;;
15340;SDS011;7770;52.158;5.372;2023-09-07T09:15:03;8.68;;;7.50;;
15340;SDS011;7770;52.158;5.372;2023-09-07T09:17:51;7.88;;;6.90;;
15340;SDS011;7770;52.158;5.372;2023-09-07T09:20:37;7.88;;;7.18;;
15340;SDS011;7770;52.158;5.372;2023-09-07T09:23:29;9.60;;;7.57;;
15340;SDS011;7770;52.158;5.372;2023-09-07T09:26:20;8.13;;;7.32;;
15340;SDS011;7770;52.158;5.372;2023-09-07T09:29:06;9.52;;;6.85;;
15340;SDS011;7770;52.158;5.372;2023-09-07T09:31:55;9.45;;;6.93;;
15340;SDS011;7770;52.158;5.372;2023-09-07T09:34:43;7.82;;;7.03;;
15340;SDS011;7770;52.158;5.372;2023-09-07T09:37:29;7.82;;;6.43;;
15340;SDS011;7770;52.158;5.372;2023-09-07T09:40:16;9.07;;;7.22;;
15340;SDS011;7770;52.158;5.372;2023-09-07T09:43:02;7.68;;;6.47;;
15340;SDS011;7770;52.158;5.372;2023-09-07T09:45:51;8.23;;;6.75;;
15340;SDS011;7770;52.158;5.372;2023-09-07T09:48:38;8.05;;;5.95;;
15340;SDS011;7770;52.158;5.372;2023-09-07T09:51:27;7.25;;;5.82;;
15340;SDS011;7770;52.158;5.372;2023-09-07T09:54:14;6.25;;;5.65;;
15340;SDS011;7770;52.158;5.372;2023-09-07T09:57:04;6.60;;;5.82;;
15340;SDS011;7770;52.158;5.372;2023-09-07T09:59:50;6.72;;;5.82;;
15340;SDS011;7770;52.158;5.372;2023-09-07T10:02:37;6.93;;;6.22;;
15340;SDS011;7770;52.158;5.372;2023-09-07T10:05:24;6.80;;;6.10;;
15340;SDS011;7770;52.158;5.372;2023-09-07T10:08:15;7.07;;;6.28;;
15340;SDS011;7770;52.158;5.372;2023-09-07T10:11:07;7.07;;;6.38;;
15340;SDS011;7770;52.158;5.372;2023-09-07T10:13:58;6.82;;;6.18;;
15340;SDS011;7770;52.158;5.372;2023-09-07T10:16:49;7.35;;;6.10;;
15340;SDS011;7770;52.158;5.372;2023-09-07T10:19:38;6.32;;;5.75;;
15340;SDS011;7770;52.158;5.372;2023-09-07T10:22:31;7.82;;;5.75;;
15340;SDS011;7770;52.158;5.372;2023-09-07T10:25:21;6.90;;;6.10;;
15340;SDS011;7770;52.158;5.372;2023-09-07T10:28:20;7.03;;;6.18;;
15340;SDS011;7770;52.158;5.372;2023-09-07T10:31:17;9.73;;;5.93;;
15340;SDS011;7770;52.158;5.372;2023-09-07T10:34:10;6.40;;;5.75;;
15340;SDS011;7770;52.158;5.372;2023-09-07T10:36:57;6.25;;;5.70;;
15340;SDS011;7770;52.158;5.372;2023-09-07T10:39:44;6.70;;;6.00;;
15340;SDS011;7770;52.158;5.372;2023-09-07T10:42:30;6.53;;;5.57;;
15340;SDS011;7770;52.158;5.372;2023-09-07T10:45:18;6.55;;;5.88;;
15340;SDS011;7770;52.158;5.372;2023-09-07T10:48:04;7.80;;;5.70;;
15340;SDS011;7770;52.158;5.372;2023-09-07T10:50:52;7.80;;;6.03;;
15340;SDS011;7770;52.158;5.372;2023-09-07T10:53:38;7.55;;;6.50;;
15340;SDS011;7770;52.158;5.372;2023-09-07T10:56:24;6.95;;;6.32;;
15340;SDS011;7770;52.158;5.372;2023-09-07T10:59:15;6.72;;;6.13;;
15340;SDS011;7770;52.158;5.372;2023-09-07T11:02:05;6.63;;;6.03;;
15340;SDS011;7770;52.158;5.372;2023-09-07T11:04:51;6.88;;;6.22;;
15340;SDS011;7770;52.158;5.372;2023-09-07T11:07:38;7.82;;;6.05;;
15340;SDS011;7770;52.158;5.372;2023-09-07T11:10:26;6.88;;;6.00;;
15340;SDS011;7770;52.158;5.372;2023-09-07T11:13:12;7.57;;;6.40;;
15340;SDS011;7770;52.158;5.372;2023-09-07T11:15:58;9.00;;;6.13;;
15340;SDS011;7770;52.158;5.372;2023-09-07T11:18:45;7.13;;;6.05;;
15340;SDS011;7770;52.158;5.372;2023-09-07T11:21:31;6.70;;;6.10;;
15340;SDS011;7770;52.158;5.372;2023-09-07T11:24:21;6.75;;;5.85;;
15340;SDS011;7770;52.158;5.372;2023-09-07T11:27:08;5.97;;;5.57;;
15340;SDS011;7770;52.158;5.372;2023-09-07T11:29:55;6.50;;;5.97;;
15340;SDS011;7770;52.158;5.372;2023-09-07T11:32:42;6.57;;;5.97;;
15340;SDS011;7770;52.158;5.372;2023-09-07T11:35:28;7.45;;;6.05;;
15340;SDS011;7770;52.158;5.372;2023-09-07T11:38:15;6.60;;;6.00;;
15340;SDS011;7770;52.158;5.372;2023-09-07T11:41:02;7.20;;;5.85;;
15340;SDS011;7770;52.158;5.372;2023-09-07T11:43:48;6.30;;;5.68;;
15340;SDS011;7770;52.158;5.372;2023-09-07T11:46:35;6.85;;;5.82;;
15340;SDS011;7770;52.158;5.372;2023-09-07T11:49:21;6.25;;;5.70;;
15340;SDS011;7770;52.158;5.372;2023-09-07T11:52:09;7.05;;;6.22;;
15340;SDS011;7770;52.158;5.372;2023-09-07T11:54:54;7.93;;;5.88;;
15340;SDS011;7770;52.158;5.372;2023-09-07T11:57:40;6.50;;;5.90;;
15340;SDS011;7770;52.158;5.372;2023-09-07T12:03:38;8.68;;;6.40;;
15340;SDS011;7770;52.158;5.372;2023-09-07T12:06:24;7.40;;;6.55;;
15340;SDS011;7770;52.158;5.372;2023-09-07T12:09:10;7.60;;;6.28;;
15340;SDS011;7770;52.158;5.372;2023-09-07T12:11:56;6.85;;;6.35;;
15340;SDS011;7770;52.158;5.372;2023-09-07T12:14:42;7.18;;;6.38;;
15340;SDS011;7770;52.158;5.372;2023-09-07T12:17:28;6.72;;;6.13;;
15340;SDS011;7770;52.158;5.372;2023-09-07T12:20:14;6.78;;;6.07;;
15340;SDS011;7770;52.158;5.372;2023-09-07T12:23:00;6.90;;;6.20;;
15340;SDS011;7770;52.158;5.372;2023-09-07T12:25:47;6.82;;;6.13;;
15340;SDS011;7770;52.158;5.372;2023-09-07T12:28:36;8.90;;;6.68;;
15340;SDS011;7770;52.158;5.372;2023-09-07T12:31:22;9.63;;;6.30;;
15340;SDS011;7770;52.158;5.372;2023-09-07T12:34:08;7.18;;;6.50;;
15340;SDS011;7770;52.158;5.372;2023-09-07T12:36:54;7.38;;;6.78;;
15340;SDS011;7770;52.158;5.372;2023-09-07T12:39:40;10.00;;;6.85;;
15340;SDS011;7770;52.158;5.372;2023-09-07T12:42:26;7.10;;;6.50;;
15340;SDS011;7770;52.158;5.372;2023-09-07T12:45:12;9.45;;;6.68;;
15340;SDS011;7770;52.158;5.372;2023-09-07T12:48:00;6.35;;;5.72;;
15340;SDS011;7770;52.158;5.372;2023-09-07T12:50:46;8.90;;;6.30;;
15340;SDS011;7770;52.158;5.372;2023-09-07T12:53:32;7.03;;;6.43;;
15340;SDS011;7770;52.158;5.372;2023-09-07T12:56:18;8.00;;;6.20;;
15340;SDS011;7770;52.158;5.372;2023-09-07T12:59:04;7.20;;;5.82;;
15340;SDS011;7770;52.158;5.372;2023-09-07T13:01:50;6.50;;;5.75;;
15340;SDS011;7770;52.158;5.372;2023-09-07T13:04:38;8.15;;;6.13;;
15340;SDS011;7770;52.158;5.372;2023-09-07T13:07:24;6.85;;;6.22;;
15340;SDS011;7770;52.158;5.372;2023-09-07T13:10:10;7.00;;;5.90;;
15340;SDS011;7770;52.158;5.372;2023-09-07T13:12:56;6.72;;;6.13;;
15340;SDS011;7770;52.158;5.372;2023-09-07T13:15:42;6.22;;;5.65;;
15340;SDS011;7770;52.158;5.372;2023-09-07T13:18:28;8.70;;;6.20;;
15340;SDS011;7770;52.158;5.372;2023-09-07T13:21:15;8.05;;;5.88;;
15340;SDS011;7770;52.158;5.372;2023-09-07T13:24:01;8.52;;;6.18;;
15340;SDS011;7770;52.158;5.372;2023-09-07T13:26:47;7.88;;;6.03;;
15340;SDS011;7770;52.158;5.372;2023-09-07T13:29:33;8.02;;;6.13;;
15340;SDS011;7770;52.158;5.372;2023-09-07T13:32:19;7.88;;;5.90;;
15340;SDS011;7770;52.158;5.372;2023-09-07T13:35:05;7.35;;;6.30;;
15340;SDS011;7770;52.158;5.372;2023-09-07T13:37:51;6.63;;;6.05;;
15340;SDS011;7770;52.158;5.372;2023-09-07T13:40:38;6.60;;;5.93;;
15340;SDS011;7770;52.158;5.372;2023-09-07T13:43:24;6.72;;;5.72;;
15340;SDS011;7770;52.158;5.372;2023-09-07T13:46:10;7.07;;;6.10;;
15340;SDS011;7770;52.158;5.372;2023-09-07T13:48:56;6.88;;;6.13;;
15340;SDS011;7770;52.158;5.372;2023-09-07T13:51:42;6.90;;;6.13;;
15340;SDS011;7770;52.158;5.372;2023-09-07T13:54:29;7.35;;;6.40;;
15340;SDS011;7770;52.158;5.372;2023-09-07T13:57:15;7.13;;;6.43;;
15340;SDS011;7770;52.158;5.372;2023-09-07T14:00:01;6.70;;;6.20;;
15340;SDS011;7770;52.158;5.372;2023-09-07T14:02:48;7.05;;;6.35;;
15340;SDS011;7770;52.158;5.372;2023-09-07T14:05:34;7.28;;;6.50;;
15340;SDS011;7770;52.158;5.372;2023-09-07T14:08:20;7.30;;;6.60;;
15340;SDS011;7770;52.158;5.372;2023-09-07T14:11:08;7.35;;;6.22;;
15340;SDS011;7770;52.158;5.372;2023-09-07T14:13:55;7.75;;;6.57;;
15340;SDS011;7770;52.158;5.372;2023-09-07T14:16:41;8.80;;;6.55;;
15340;SDS011;7770;52.158;5.372;2023-09-07T14:19:27;7.18;;;6.32;;
15340;SDS011;7770;52.158;5.372;2023-09-07T14:22:16;8.30;;;6.25;;
15340;SDS011;7770;52.158;5.372;2023-09-07T14:25:02;8.57;;;6.22;;
15340;SDS011;7770;52.158;5.372;2023-09-07T14:27:49;8.57;;;6.68;;
15340;SDS011;7770;52.158;5.372;2023-09-07T14:30:35;7.40;;;6.70;;
15340;SDS011;7770;52.158;5.372;2023-09-07T14:33:21;8.38;;;6.72;;
15340;SDS011;7770;52.158;5.372;2023-09-07T14:36:07;8.02;;;6.32;;
15340;SDS011;7770;52.158;5.372;2023-09-07T14:38:54;6.78;;;6.18;;
15340;SDS011;7770;52.158;5.372;2023-09-07T14:41:40;7.82;;;6.97;;
15340;SDS011;7770;52.158;5.372;2023-09-07T14:44:28;7.75;;;6.90;;
15340;SDS011;7770;52.158;5.372;2023-09-07T14:47:14;9.85;;;6.82;;
15340;SDS011;7770;52.158;5.372;2023-09-07T14:50:00;7.32;;;6.60;;
15340;SDS011;7770;52.158;5.372;2023-09-07T14:52:47;7.30;;;6.68;;
15340;SDS011;7770;52.158;5.372;2023-09-07T14:55:33;7.80;;;7.00;;
15340;SDS011;7770;52.158;5.372;2023-09-07T14:58:19;7.68;;;6.88;;
15340;SDS011;7770;52.158;5.372;2023-09-07T15:01:05;7.95;;;7.25;;
15340;SDS011;7770;52.158;5.372;2023-09-07T15:03:52;6.95;;;6.25;;
15340;SDS011;7770;52.158;5.372;2023-09-07T15:06:38;7.82;;;7.00;;
15340;SDS011;7770;52.158;5.372;2023-09-07T15:09:24;7.85;;;7.15;;
15340;SDS011;7770;52.158;5.372;2023-09-07T15:12:11;8.68;;;6.65;;
15340;SDS011;7770;52.158;5.372;2023-09-07T15:14:57;7.25;;;6.65;;
15340;SDS011;7770;52.158;5.372;2023-09-07T15:17:45;7.40;;;6.78;;
15340;SDS011;7770;52.158;5.372;2023-09-07T15:20:33;9.23;;;7.00;;
15340;SDS011;7770;52.158;5.372;2023-09-07T15:23:21;8.02;;;7.32;;
15340;SDS011;7770;52.158;5.372;2023-09-07T15:26:06;8.30;;;7.43;;
15340;SDS011;7770;52.158;5.372;2023-09-07T15:28:52;9.23;;;7.28;;
15340;SDS011;7770;52.158;5.372;2023-09-07T15:31:39;10.10;;;6.78;;
15340;SDS011;7770;52.158;5.372;2023-09-07T15:34:25;8.45;;;6.65;;
15340;SDS011;7770;52.158;5.372;2023-09-07T15:37:11;7.43;;;6.65;;
15340;SDS011;7770;52.158;5.372;2023-09-07T15:39:57;11.20;;;7.45;;
15340;SDS011;7770;52.158;5.372;2023-09-07T15:42:43;8.05;;;7.15;;
15340;SDS011;7770;52.158;5.372;2023-09-07T15:45:29;8.25;;;7.55;;
15340;SDS011;7770;52.158;5.372;2023-09-07T15:48:15;8.30;;;7.55;;
15340;SDS011;7770;52.158;5.372;2023-09-07T15:51:01;8.23;;;7.43;;
15340;SDS011;7770;52.158;5.372;2023-09-07T15:53:47;9.98;;;9.18;;
15340;SDS011;7770;52.158;5.372;2023-09-07T15:56:33;8.43;;;7.53;;
15340;SDS011;7770;52.158;5.372;2023-09-07T15:59:19;8.00;;;7.30;;
15340;SDS011;7770;52.158;5.372;2023-09-07T16:02:06;9.00;;;7.30;;
15340;SDS011;7770;52.158;5.372;2023-09-07T16:04:52;8.07;;;7.30;;
15340;SDS011;7770;52.158;5.372;2023-09-07T16:07:38;7.53;;;6.88;;
15340;SDS011;7770;52.158;5.372;2023-09-07T16:10:24;28.77;;;25.85;;
15340;SDS011;7770;52.158;5.372;2023-09-07T16:13:10;8.52;;;7.82;;
15340;SDS011;7770;52.158;5.372;2023-09-07T16:15:56;10.00;;;9.10;;
15340;SDS011;7770;52.158;5.372;2023-09-07T16:18:42;11.57;;;10.32;;
15340;SDS011;7770;52.158;5.372;2023-09-07T16:21:28;9.68;;;8.73;;
15340;SDS011;7770;52.158;5.372;2023-09-07T16:24:15;9.70;;;8.73;;
15340;SDS011;7770;52.158;5.372;2023-09-07T16:27:01;9.70;;;8.70;;
15340;SDS011;7770;52.158;5.372;2023-09-07T16:29:47;9.70;;;8.75;;
15340;SDS011;7770;52.158;5.372;2023-09-07T16:32:34;11.65;;;7.80;;
15340;SDS011;7770;52.158;5.372;2023-09-07T16:35:22;8.50;;;7.70;;
15340;SDS011;7770;52.158;5.372;2023-09-07T16:38:08;9.43;;;8.52;;
15340;SDS011;7770;52.158;5.372;2023-09-07T16:40:54;8.70;;;7.80;;
15340;SDS011;7770;52.158;5.372;2023-09-07T16:43:40;9.60;;;8.60;;
15340;SDS011;7770;52.158;5.372;2023-09-07T16:46:26;9.15;;;8.25;;